sensor_id;sensor_type;location;lat;lon;timestamp;temperature;humidity
20376;DHT22;10347;51.828;6.466;2022-11-25T00:01:29;10.40;99.90
20376;DHT22;10347;51.828;6.466;2022-11-25T00:03:56;10.40;99.90
20376;DHT22;10347;51.828;6.466;2022-11-25T00:06:23;10.40;99.90
20376;DHT22;10347;51.828;6.466;2022-11-25T00:08:52;10.40;99.90
20376;DHT22;10347;51.828;6.466;2022-11-25T00:11:18;10.40;99.90
20376;DHT22;10347;51.828;6.466;2022-11-25T00:13:45;10.40;99.90
20376;DHT22;10347;51.828;6.466;2022-11-25T00:16:13;10.40;99.90
20376;DHT22;10347;51.828;6.466;2022-11-25T00:18:39;10.40;99.90
20376;DHT22;10347;51.828;6.466;2022-11-25T00:21:19;10.50;99.90
20376;DHT22;10347;51.828;6.466;2022-11-25T00:23:53;10.40;99.90
20376;DHT22;10347;51.828;6.466;2022-11-25T00:26:20;10.50;99.90
20376;DHT22;10347;51.828;6.466;2022-11-25T00:28:46;10.40;99.90
20376;DHT22;10347;51.828;6.466;2022-11-25T00:31:16;10.40;99.90
20376;DHT22;10347;51.828;6.466;2022-11-25T00:33:42;10.50;99.90
20376;DHT22;10347;51.828;6.466;2022-11-25T00:38:42;10.50;99.90
20376;DHT22;10347;51.828;6.466;2022-11-25T00:41:08;10.50;99.90
20376;DHT22;10347;51.828;6.466;2022-11-25T00:43:52;10.40;99.90
20376;DHT22;10347;51.828;6.466;2022-11-25T00:46:36;10.50;99.90
20376;DHT22;10347;51.828;6.466;2022-11-25T00:49:02;10.50;99.90
20376;DHT22;10347;51.828;6.466;2022-11-25T00:51:27;10.50;99.90
20376;DHT22;10347;51.828;6.466;2022-11-25T00:53:53;10.50;99.90
20376;DHT22;10347;51.828;6.466;2022-11-25T00:56:19;10.50;99.90
20376;DHT22;10347;51.828;6.466;2022-11-25T00:58:44;10.50;99.90
20376;DHT22;10347;51.828;6.466;2022-11-25T01:01:11;10.50;99.90
20376;DHT22;10347;51.828;6.466;2022-11-25T01:03:37;10.60;99.90
20376;DHT22;10347;51.828;6.466;2022-11-25T01:06:04;10.60;99.90
20376;DHT22;10347;51.828;6.466;2022-11-25T01:08:31;10.60;99.90
20376;DHT22;10347;51.828;6.466;2022-11-25T01:11:02;10.60;99.90
20376;DHT22;10347;51.828;6.466;2022-11-25T01:13:28;10.60;99.90
20376;DHT22;10347;51.828;6.466;2022-11-25T01:15:54;10.60;99.90
20376;DHT22;10347;51.828;6.466;2022-11-25T01:18:20;10.60;99.90
20376;DHT22;10347;51.828;6.466;2022-11-25T01:20:45;10.60;99.90
20376;DHT22;10347;51.828;6.466;2022-11-25T01:23:11;10.60;99.90
20376;DHT22;10347;51.828;6.466;2022-11-25T01:25:38;10.60;99.90
20376;DHT22;10347;51.828;6.466;2022-11-25T01:28:03;10.60;99.90
20376;DHT22;10347;51.828;6.466;2022-11-25T01:30:29;10.70;99.90
20376;DHT22;10347;51.828;6.466;2022-11-25T01:32:55;10.60;99.90
20376;DHT22;10347;51.828;6.466;2022-11-25T01:35:21;10.70;99.90
20376;DHT22;10347;51.828;6.466;2022-11-25T01:37:46;10.70;99.90
20376;DHT22;10347;51.828;6.466;2022-11-25T01:40:12;10.70;99.90
20376;DHT22;10347;51.828;6.466;2022-11-25T01:42:42;10.70;99.90
20376;DHT22;10347;51.828;6.466;2022-11-25T01:45:29;10.70;99.90
20376;DHT22;10347;51.828;6.466;2022-11-25T01:48:01;10.70;99.90
20376;DHT22;10347;51.828;6.466;2022-11-25T01:50:27;10.70;99.90
20376;DHT22;10347;51.828;6.466;2022-11-25T01:52:54;10.70;99.90
20376;DHT22;10347;51.828;6.466;2022-11-25T01:55:27;10.70;99.90
20376;DHT22;10347;51.828;6.466;2022-11-25T01:57:58;10.70;99.90
20376;DHT22;10347;51.828;6.466;2022-11-25T02:00:25;10.70;99.90
20376;DHT22;10347;51.828;6.466;2022-11-25T02:02:52;10.70;99.90
20376;DHT22;10347;51.828;6.466;2022-11-25T02:05:44;10.80;99.90
20376;DHT22;10347;51.828;6.466;2022-11-25T02:08:11;10.80;99.90
20376;DHT22;10347;51.828;6.466;2022-11-25T02:10:37;10.80;99.90
20376;DHT22;10347;51.828;6.466;2022-11-25T02:13:03;10.80;99.90
20376;DHT22;10347;51.828;6.466;2022-11-25T02:15:30;10.80;99.90
20376;DHT22;10347;51.828;6.466;2022-11-25T02:17:57;10.80;99.90
20376;DHT22;10347;51.828;6.466;2022-11-25T02:20:23;10.80;99.90
20376;DHT22;10347;51.828;6.466;2022-11-25T02:23:02;10.80;99.90
20376;DHT22;10347;51.828;6.466;2022-11-25T02:25:38;10.80;99.90
20376;DHT22;10347;51.828;6.466;2022-11-25T02:28:07;10.80;99.90
20376;DHT22;10347;51.828;6.466;2022-11-25T02:30:34;10.80;99.90
20376;DHT22;10347;51.828;6.466;2022-11-25T02:33:00;10.80;99.90
20376;DHT22;10347;51.828;6.466;2022-11-25T02:35:29;10.80;99.90
20376;DHT22;10347;51.828;6.466;2022-11-25T02:37:59;10.80;99.90
20376;DHT22;10347;51.828;6.466;2022-11-25T02:40:27;10.80;99.90
20376;DHT22;10347;51.828;6.466;2022-11-25T02:42:55;10.80;99.90
20376;DHT22;10347;51.828;6.466;2022-11-25T02:45:28;10.80;99.90
20376;DHT22;10347;51.828;6.466;2022-11-25T02:47:55;10.80;99.90
20376;DHT22;10347;51.828;6.466;2022-11-25T02:50:21;10.80;99.90
20376;DHT22;10347;51.828;6.466;2022-11-25T02:52:47;10.80;99.90
20376;DHT22;10347;51.828;6.466;2022-11-25T02:55:12;10.80;99.90
20376;DHT22;10347;51.828;6.466;2022-11-25T02:57:38;10.80;99.90
20376;DHT22;10347;51.828;6.466;2022-11-25T03:00:04;10.80;99.90
20376;DHT22;10347;51.828;6.466;2022-11-25T03:02:29;10.80;99.90
20376;DHT22;10347;51.828;6.466;2022-11-25T03:04:55;10.80;99.90
20376;DHT22;10347;51.828;6.466;2022-11-25T03:07:20;10.80;99.90
20376;DHT22;10347;51.828;6.466;2022-11-25T03:09:46;10.80;99.90
20376;DHT22;10347;51.828;6.466;2022-11-25T03:12:12;10.80;99.90
20376;DHT22;10347;51.828;6.466;2022-11-25T03:14:43;10.80;99.90
20376;DHT22;10347;51.828;6.466;2022-11-25T03:17:08;10.80;99.90
20376;DHT22;10347;51.828;6.466;2022-11-25T03:19:34;10.80;99.90
20376;DHT22;10347;51.828;6.466;2022-11-25T03:22:00;10.80;99.90
20376;DHT22;10347;51.828;6.466;2022-11-25T03:24:25;10.80;99.90
20376;DHT22;10347;51.828;6.466;2022-11-25T03:26:51;10.80;99.90
20376;DHT22;10347;51.828;6.466;2022-11-25T03:29:16;10.80;99.90
20376;DHT22;10347;51.828;6.466;2022-11-25T03:31:42;10.80;99.90
20376;DHT22;10347;51.828;6.466;2022-11-25T03:34:07;10.80;99.90
20376;DHT22;10347;51.828;6.466;2022-11-25T03:36:33;10.80;99.90
20376;DHT22;10347;51.828;6.466;2022-11-25T03:38:58;10.80;99.90
20376;DHT22;10347;51.828;6.466;2022-11-25T03:41:24;10.80;99.90
20376;DHT22;10347;51.828;6.466;2022-11-25T03:43:49;10.80;99.90
20376;DHT22;10347;51.828;6.466;2022-11-25T03:46:15;10.80;99.90
20376;DHT22;10347;51.828;6.466;2022-11-25T03:48:40;10.80;99.90
20376;DHT22;10347;51.828;6.466;2022-11-25T03:51:06;10.70;99.90
20376;DHT22;10347;51.828;6.466;2022-11-25T03:53:31;10.80;99.90
20376;DHT22;10347;51.828;6.466;2022-11-25T03:55:57;10.80;99.90
20376;DHT22;10347;51.828;6.466;2022-11-25T03:58:22;10.80;99.90
20376;DHT22;10347;51.828;6.466;2022-11-25T04:00:48;10.80;99.90
20376;DHT22;10347;51.828;6.466;2022-11-25T04:03:13;10.80;99.90
20376;DHT22;10347;51.828;6.466;2022-11-25T04:05:40;10.80;99.90
20376;DHT22;10347;51.828;6.466;2022-11-25T04:08:06;10.80;99.90
20376;DHT22;10347;51.828;6.466;2022-11-25T04:10:31;10.80;99.90
20376;DHT22;10347;51.828;6.466;2022-11-25T04:12:57;10.80;99.90
20376;DHT22;10347;51.828;6.466;2022-11-25T04:15:22;10.80;99.90
20376;DHT22;10347;51.828;6.466;2022-11-25T04:17:48;10.80;99.90
20376;DHT22;10347;51.828;6.466;2022-11-25T04:20:14;10.80;99.90
20376;DHT22;10347;51.828;6.466;2022-11-25T04:22:40;10.80;99.90
20376;DHT22;10347;51.828;6.466;2022-11-25T04:25:06;10.80;99.90
20376;DHT22;10347;51.828;6.466;2022-11-25T04:27:32;10.80;99.90
20376;DHT22;10347;51.828;6.466;2022-11-25T04:29:58;10.80;99.90
20376;DHT22;10347;51.828;6.466;2022-11-25T04:32:23;10.80;99.90
20376;DHT22;10347;51.828;6.466;2022-11-25T04:34:49;10.80;99.90
20376;DHT22;10347;51.828;6.466;2022-11-25T04:37:14;10.80;99.90
20376;DHT22;10347;51.828;6.466;2022-11-25T04:39:40;10.80;99.90
20376;DHT22;10347;51.828;6.466;2022-11-25T04:42:05;10.90;99.90
20376;DHT22;10347;51.828;6.466;2022-11-25T04:44:50;10.90;99.90
20376;DHT22;10347;51.828;6.466;2022-11-25T04:47:15;10.80;99.90
20376;DHT22;10347;51.828;6.466;2022-11-25T04:49:41;10.90;99.90
20376;DHT22;10347;51.828;6.466;2022-11-25T04:52:06;10.90;99.90
20376;DHT22;10347;51.828;6.466;2022-11-25T04:54:32;10.90;99.90
20376;DHT22;10347;51.828;6.466;2022-11-25T04:56:57;10.90;99.90
20376;DHT22;10347;51.828;6.466;2022-11-25T04:59:23;10.90;99.90
20376;DHT22;10347;51.828;6.466;2022-11-25T05:02:05;10.90;99.90
20376;DHT22;10347;51.828;6.466;2022-11-25T05:04:31;10.90;99.90
20376;DHT22;10347;51.828;6.466;2022-11-25T05:06:57;11.00;99.90
20376;DHT22;10347;51.828;6.466;2022-11-25T05:09:22;11.00;99.90
20376;DHT22;10347;51.828;6.466;2022-11-25T05:11:48;10.90;99.90
20376;DHT22;10347;51.828;6.466;2022-11-25T05:14:14;10.90;99.90
20376;DHT22;10347;51.828;6.466;2022-11-25T05:16:39;11.00;99.90
20376;DHT22;10347;51.828;6.466;2022-11-25T05:19:05;10.90;99.90
20376;DHT22;10347;51.828;6.466;2022-11-25T05:21:31;10.90;99.90
20376;DHT22;10347;51.828;6.466;2022-11-25T05:23:57;10.90;99.90
20376;DHT22;10347;51.828;6.466;2022-11-25T05:26:23;10.90;99.90
20376;DHT22;10347;51.828;6.466;2022-11-25T05:28:48;10.90;99.90
20376;DHT22;10347;51.828;6.466;2022-11-25T05:31:14;11.00;99.90
20376;DHT22;10347;51.828;6.466;2022-11-25T05:33:39;11.00;99.90
20376;DHT22;10347;51.828;6.466;2022-11-25T05:36:05;10.90;99.90
20376;DHT22;10347;51.828;6.466;2022-11-25T05:38:31;10.90;99.90
20376;DHT22;10347;51.828;6.466;2022-11-25T05:41:01;10.90;99.90
20376;DHT22;10347;51.828;6.466;2022-11-25T05:43:27;11.00;99.90
20376;DHT22;10347;51.828;6.466;2022-11-25T05:45:52;10.90;99.90
20376;DHT22;10347;51.828;6.466;2022-11-25T05:48:18;10.90;99.90
20376;DHT22;10347;51.828;6.466;2022-11-25T05:50:43;10.90;99.90
20376;DHT22;10347;51.828;6.466;2022-11-25T05:53:09;10.90;99.90
20376;DHT22;10347;51.828;6.466;2022-11-25T05:55:36;10.90;99.90
20376;DHT22;10347;51.828;6.466;2022-11-25T05:58:02;10.90;99.90
20376;DHT22;10347;51.828;6.466;2022-11-25T06:00:29;10.90;99.90
20376;DHT22;10347;51.828;6.466;2022-11-25T06:02:54;10.90;99.90
20376;DHT22;10347;51.828;6.466;2022-11-25T06:05:20;10.90;99.90
20376;DHT22;10347;51.828;6.466;2022-11-25T06:07:46;10.90;99.90
20376;DHT22;10347;51.828;6.466;2022-11-25T06:10:11;10.90;99.90
20376;DHT22;10347;51.828;6.466;2022-11-25T06:12:37;10.90;99.90
20376;DHT22;10347;51.828;6.466;2022-11-25T06:15:02;10.90;99.90
20376;DHT22;10347;51.828;6.466;2022-11-25T06:17:29;10.90;99.90
20376;DHT22;10347;51.828;6.466;2022-11-25T06:19:54;10.90;99.90
20376;DHT22;10347;51.828;6.466;2022-11-25T06:22:20;10.90;99.90
20376;DHT22;10347;51.828;6.466;2022-11-25T06:24:46;10.80;99.90
20376;DHT22;10347;51.828;6.466;2022-11-25T06:27:11;10.80;99.90
20376;DHT22;10347;51.828;6.466;2022-11-25T06:29:37;10.80;99.90
20376;DHT22;10347;51.828;6.466;2022-11-25T06:32:03;10.80;99.90
20376;DHT22;10347;51.828;6.466;2022-11-25T06:34:28;10.80;99.90
20376;DHT22;10347;51.828;6.466;2022-11-25T06:36:54;10.80;99.90
20376;DHT22;10347;51.828;6.466;2022-11-25T06:39:19;10.80;99.90
20376;DHT22;10347;51.828;6.466;2022-11-25T06:41:45;10.80;99.90
20376;DHT22;10347;51.828;6.466;2022-11-25T06:44:12;10.80;99.90
20376;DHT22;10347;51.828;6.466;2022-11-25T06:46:37;10.80;99.90
20376;DHT22;10347;51.828;6.466;2022-11-25T06:49:03;10.80;99.90
20376;DHT22;10347;51.828;6.466;2022-11-25T06:51:29;10.80;99.90
20376;DHT22;10347;51.828;6.466;2022-11-25T06:53:54;10.80;99.90
20376;DHT22;10347;51.828;6.466;2022-11-25T06:56:22;10.80;99.90
20376;DHT22;10347;51.828;6.466;2022-11-25T06:58:49;10.80;99.90
20376;DHT22;10347;51.828;6.466;2022-11-25T07:01:24;10.80;99.90
20376;DHT22;10347;51.828;6.466;2022-11-25T07:03:52;10.80;99.90
20376;DHT22;10347;51.828;6.466;2022-11-25T07:06:19;10.80;99.90
20376;DHT22;10347;51.828;6.466;2022-11-25T07:08:45;10.80;99.90
20376;DHT22;10347;51.828;6.466;2022-11-25T07:11:19;10.80;99.90
20376;DHT22;10347;51.828;6.466;2022-11-25T07:13:46;10.80;99.90
20376;DHT22;10347;51.828;6.466;2022-11-25T07:16:12;10.80;99.90
20376;DHT22;10347;51.828;6.466;2022-11-25T07:18:39;10.80;99.90
20376;DHT22;10347;51.828;6.466;2022-11-25T07:23:36;10.80;99.90
20376;DHT22;10347;51.828;6.466;2022-11-25T07:26:07;10.80;99.90
20376;DHT22;10347;51.828;6.466;2022-11-25T07:28:34;10.80;99.90
20376;DHT22;10347;51.828;6.466;2022-11-25T07:31:08;10.80;99.90
20376;DHT22;10347;51.828;6.466;2022-11-25T07:33:34;10.80;99.90
20376;DHT22;10347;51.828;6.466;2022-11-25T07:36:11;10.80;99.90
20376;DHT22;10347;51.828;6.466;2022-11-25T07:38:38;10.80;99.90
20376;DHT22;10347;51.828;6.466;2022-11-25T07:41:08;10.80;99.90
20376;DHT22;10347;51.828;6.466;2022-11-25T07:43:35;10.80;99.90
20376;DHT22;10347;51.828;6.466;2022-11-25T07:46:33;10.80;99.90
20376;DHT22;10347;51.828;6.466;2022-11-25T07:49:01;10.80;99.90
20376;DHT22;10347;51.828;6.466;2022-11-25T07:51:31;10.70;99.90
20376;DHT22;10347;51.828;6.466;2022-11-25T07:53:59;10.70;99.90
20376;DHT22;10347;51.828;6.466;2022-11-25T07:56:26;10.70;99.90
20376;DHT22;10347;51.828;6.466;2022-11-25T07:58:53;10.70;99.90
20376;DHT22;10347;51.828;6.466;2022-11-25T08:01:19;10.70;99.90
20376;DHT22;10347;51.828;6.466;2022-11-25T08:03:46;10.80;99.90
20376;DHT22;10347;51.828;6.466;2022-11-25T08:06:15;10.80;99.90
20376;DHT22;10347;51.828;6.466;2022-11-25T08:08:42;10.70;99.90
20376;DHT22;10347;51.828;6.466;2022-11-25T08:11:10;10.70;99.90
20376;DHT22;10347;51.828;6.466;2022-11-25T08:13:36;10.70;99.90
20376;DHT22;10347;51.828;6.466;2022-11-25T08:16:02;10.70;99.90
20376;DHT22;10347;51.828;6.466;2022-11-25T08:18:28;10.70;99.90
20376;DHT22;10347;51.828;6.466;2022-11-25T08:21:05;10.70;99.90
20376;DHT22;10347;51.828;6.466;2022-11-25T08:23:32;10.70;99.90
20376;DHT22;10347;51.828;6.466;2022-11-25T08:26:03;10.70;99.90
20376;DHT22;10347;51.828;6.466;2022-11-25T08:28:29;10.70;99.90
20376;DHT22;10347;51.828;6.466;2022-11-25T08:31:06;10.70;99.90
20376;DHT22;10347;51.828;6.466;2022-11-25T08:33:32;10.70;99.90
20376;DHT22;10347;51.828;6.466;2022-11-25T08:35:58;10.70;99.90
20376;DHT22;10347;51.828;6.466;2022-11-25T08:38:25;10.70;99.90
20376;DHT22;10347;51.828;6.466;2022-11-25T08:40:51;10.70;99.90
20376;DHT22;10347;51.828;6.466;2022-11-25T08:43:16;10.70;99.90
20376;DHT22;10347;51.828;6.466;2022-11-25T08:45:42;10.70;99.90
20376;DHT22;10347;51.828;6.466;2022-11-25T08:48:08;10.70;99.90
20376;DHT22;10347;51.828;6.466;2022-11-25T08:50:34;10.70;99.90
20376;DHT22;10347;51.828;6.466;2022-11-25T08:53:00;10.70;99.90
20376;DHT22;10347;51.828;6.466;2022-11-25T08:55:27;10.70;99.90
20376;DHT22;10347;51.828;6.466;2022-11-25T08:57:53;10.80;99.90
20376;DHT22;10347;51.828;6.466;2022-11-25T09:00:20;10.80;99.90
20376;DHT22;10347;51.828;6.466;2022-11-25T09:02:46;10.80;99.90
20376;DHT22;10347;51.828;6.466;2022-11-25T09:05:14;10.80;99.90
20376;DHT22;10347;51.828;6.466;2022-11-25T09:07:41;10.80;99.90
20376;DHT22;10347;51.828;6.466;2022-11-25T09:10:09;10.80;99.90
20376;DHT22;10347;51.828;6.466;2022-11-25T09:12:36;10.90;99.90
20376;DHT22;10347;51.828;6.466;2022-11-25T09:15:03;11.00;99.90
20376;DHT22;10347;51.828;6.466;2022-11-25T09:17:28;10.90;99.90
20376;DHT22;10347;51.828;6.466;2022-11-25T09:19:54;11.00;99.90
20376;DHT22;10347;51.828;6.466;2022-11-25T09:22:19;11.00;99.90
20376;DHT22;10347;51.828;6.466;2022-11-25T09:24:45;11.10;99.90
20376;DHT22;10347;51.828;6.466;2022-11-25T09:27:10;11.10;99.90
20376;DHT22;10347;51.828;6.466;2022-11-25T09:29:36;11.10;99.90
20376;DHT22;10347;51.828;6.466;2022-11-25T09:32:02;11.10;99.90
20376;DHT22;10347;51.828;6.466;2022-11-25T09:34:27;11.20;99.90
20376;DHT22;10347;51.828;6.466;2022-11-25T09:36:53;11.20;99.90
20376;DHT22;10347;51.828;6.466;2022-11-25T09:39:18;11.20;99.90
20376;DHT22;10347;51.828;6.466;2022-11-25T09:42:10;11.30;99.90
20376;DHT22;10347;51.828;6.466;2022-11-25T09:48:11;11.30;99.90
20376;DHT22;10347;51.828;6.466;2022-11-25T09:51:13;11.40;99.90
20376;DHT22;10347;51.828;6.466;2022-11-25T09:59:04;11.50;99.90
20376;DHT22;10347;51.828;6.466;2022-11-25T10:01:45;11.60;99.90
20376;DHT22;10347;51.828;6.466;2022-11-25T10:04:26;11.60;99.90
20376;DHT22;10347;51.828;6.466;2022-11-25T10:06:59;11.70;99.90
20376;DHT22;10347;51.828;6.466;2022-11-25T10:09:29;11.70;99.90
20376;DHT22;10347;51.828;6.466;2022-11-25T10:12:27;11.70;99.90
20376;DHT22;10347;51.828;6.466;2022-11-25T10:15:03;11.80;99.90
20376;DHT22;10347;51.828;6.466;2022-11-25T10:17:44;11.80;99.90
20376;DHT22;10347;51.828;6.466;2022-11-25T10:20:16;11.90;99.90
20376;DHT22;10347;51.828;6.466;2022-11-25T10:22:48;11.90;99.90
20376;DHT22;10347;51.828;6.466;2022-11-25T10:25:17;11.90;99.90
20376;DHT22;10347;51.828;6.466;2022-11-25T10:30:20;12.00;99.90
20376;DHT22;10347;51.828;6.466;2022-11-25T10:33:12;12.00;99.90
20376;DHT22;10347;51.828;6.466;2022-11-25T10:36:04;12.10;99.90
20376;DHT22;10347;51.828;6.466;2022-11-25T10:41:05;12.20;99.90
20376;DHT22;10347;51.828;6.466;2022-11-25T10:43:32;12.20;99.90
20376;DHT22;10347;51.828;6.466;2022-11-25T10:46:10;12.30;99.90
20376;DHT22;10347;51.828;6.466;2022-11-25T10:56:59;12.40;99.90
20376;DHT22;10347;51.828;6.466;2022-11-25T11:07:38;12.60;99.90
20376;DHT22;10347;51.828;6.466;2022-11-25T11:10:15;12.60;99.90
20376;DHT22;10347;51.828;6.466;2022-11-25T11:15:30;12.70;99.90
20376;DHT22;10347;51.828;6.466;2022-11-25T11:17:58;12.70;99.90
20376;DHT22;10347;51.828;6.466;2022-11-25T11:20:27;12.70;99.90
20376;DHT22;10347;51.828;6.466;2022-11-25T11:23:01;12.70;99.90
20376;DHT22;10347;51.828;6.466;2022-11-25T11:25:35;12.70;99.90
20376;DHT22;10347;51.828;6.466;2022-11-25T11:28:02;12.70;99.90
20376;DHT22;10347;51.828;6.466;2022-11-25T11:31:16;12.70;99.90
20376;DHT22;10347;51.828;6.466;2022-11-25T11:39:51;12.80;99.90
20376;DHT22;10347;51.828;6.466;2022-11-25T11:42:17;12.80;99.90
20376;DHT22;10347;51.828;6.466;2022-11-25T11:53:07;12.90;99.90
20376;DHT22;10347;51.828;6.466;2022-11-25T11:58:46;13.00;99.90
20376;DHT22;10347;51.828;6.466;2022-11-25T12:01:38;13.00;99.90
20376;DHT22;10347;51.828;6.466;2022-11-25T12:04:17;13.00;99.90
20376;DHT22;10347;51.828;6.466;2022-11-25T12:06:57;13.00;99.90
20376;DHT22;10347;51.828;6.466;2022-11-25T12:09:24;13.00;99.90
20376;DHT22;10347;51.828;6.466;2022-11-25T12:11:57;13.00;99.90
20376;DHT22;10347;51.828;6.466;2022-11-25T12:14:41;13.00;99.90
20376;DHT22;10347;51.828;6.466;2022-11-25T12:17:16;13.00;99.90
20376;DHT22;10347;51.828;6.466;2022-11-25T12:19:55;13.00;99.90
20376;DHT22;10347;51.828;6.466;2022-11-25T12:22:29;13.00;99.90
20376;DHT22;10347;51.828;6.466;2022-11-25T12:25:22;13.10;99.90
20376;DHT22;10347;51.828;6.466;2022-11-25T12:28:19;13.10;99.90
20376;DHT22;10347;51.828;6.466;2022-11-25T12:36:17;13.10;99.90
20376;DHT22;10347;51.828;6.466;2022-11-25T12:38:59;13.10;99.90
20376;DHT22;10347;51.828;6.466;2022-11-25T12:41:36;13.10;99.90
20376;DHT22;10347;51.828;6.466;2022-11-25T12:44:17;13.10;99.90
20376;DHT22;10347;51.828;6.466;2022-11-25T12:46:47;13.10;99.90
20376;DHT22;10347;51.828;6.466;2022-11-25T12:49:20;13.10;99.90
20376;DHT22;10347;51.828;6.466;2022-11-25T13:11:24;13.20;99.90
20376;DHT22;10347;51.828;6.466;2022-11-25T13:13:53;13.20;99.90
20376;DHT22;10347;51.828;6.466;2022-11-25T13:16:21;13.20;99.90
20376;DHT22;10347;51.828;6.466;2022-11-25T13:18:48;13.20;99.90
20376;DHT22;10347;51.828;6.466;2022-11-25T13:21:15;13.30;99.90
20376;DHT22;10347;51.828;6.466;2022-11-25T13:29:01;13.30;99.90
20376;DHT22;10347;51.828;6.466;2022-11-25T13:31:53;13.30;99.90
20376;DHT22;10347;51.828;6.466;2022-11-25T13:36:50;13.30;99.90
20376;DHT22;10347;51.828;6.466;2022-11-25T13:39:17;13.30;99.90
20376;DHT22;10347;51.828;6.466;2022-11-25T13:41:46;13.30;99.90
20376;DHT22;10347;51.828;6.466;2022-11-25T13:44:24;13.30;99.90
20376;DHT22;10347;51.828;6.466;2022-11-25T13:46:54;13.30;99.90
20376;DHT22;10347;51.828;6.466;2022-11-25T13:51:55;13.30;99.90
20376;DHT22;10347;51.828;6.466;2022-11-25T13:54:31;13.30;99.90
20376;DHT22;10347;51.828;6.466;2022-11-25T13:57:16;13.30;99.90
20376;DHT22;10347;51.828;6.466;2022-11-25T14:02:30;13.30;99.90
20376;DHT22;10347;51.828;6.466;2022-11-25T14:19:15;13.30;99.90
20376;DHT22;10347;51.828;6.466;2022-11-25T14:27:20;13.30;99.90
20376;DHT22;10347;51.828;6.466;2022-11-25T14:29:53;13.30;99.90
20376;DHT22;10347;51.828;6.466;2022-11-25T14:32:57;13.30;99.90
20376;DHT22;10347;51.828;6.466;2022-11-25T14:35:49;13.30;99.90
20376;DHT22;10347;51.828;6.466;2022-11-25T14:38:24;13.30;99.90
20376;DHT22;10347;51.828;6.466;2022-11-25T14:41:07;13.30;99.90
20376;DHT22;10347;51.828;6.466;2022-11-25T14:43:39;13.30;99.90
20376;DHT22;10347;51.828;6.466;2022-11-25T14:46:19;13.30;99.90
20376;DHT22;10347;51.828;6.466;2022-11-25T14:49:01;13.30;99.90
20376;DHT22;10347;51.828;6.466;2022-11-25T14:51:33;13.30;99.90
20376;DHT22;10347;51.828;6.466;2022-11-25T14:53:59;13.30;99.90
20376;DHT22;10347;51.828;6.466;2022-11-25T14:56:30;13.30;99.90
20376;DHT22;10347;51.828;6.466;2022-11-25T14:58:57;13.30;99.90
20376;DHT22;10347;51.828;6.466;2022-11-25T15:01:31;13.30;99.90
20376;DHT22;10347;51.828;6.466;2022-11-25T15:04:19;13.30;99.90
20376;DHT22;10347;51.828;6.466;2022-11-25T15:07:16;13.30;99.90
20376;DHT22;10347;51.828;6.466;2022-11-25T15:09:42;13.30;99.90
20376;DHT22;10347;51.828;6.466;2022-11-25T15:12:14;13.30;99.90
20376;DHT22;10347;51.828;6.466;2022-11-25T15:14:43;13.30;99.90
20376;DHT22;10347;51.828;6.466;2022-11-25T15:17:29;13.30;99.90
20376;DHT22;10347;51.828;6.466;2022-11-25T15:19:57;13.30;99.90
20376;DHT22;10347;51.828;6.466;2022-11-25T15:22:23;13.30;99.90
20376;DHT22;10347;51.828;6.466;2022-11-25T15:24:50;13.30;99.90
20376;DHT22;10347;51.828;6.466;2022-11-25T15:27:19;13.20;99.90
20376;DHT22;10347;51.828;6.466;2022-11-25T15:29:46;13.20;99.90
20376;DHT22;10347;51.828;6.466;2022-11-25T15:32:21;13.20;99.90
20376;DHT22;10347;51.828;6.466;2022-11-25T15:34:49;13.10;99.90
20376;DHT22;10347;51.828;6.466;2022-11-25T15:37:15;13.10;99.90
20376;DHT22;10347;51.828;6.466;2022-11-25T15:39:41;13.10;99.90
20376;DHT22;10347;51.828;6.466;2022-11-25T15:42:22;13.10;99.90
20376;DHT22;10347;51.828;6.466;2022-11-25T15:44:53;13.10;99.90
20376;DHT22;10347;51.828;6.466;2022-11-25T15:47:30;13.10;99.90
20376;DHT22;10347;51.828;6.466;2022-11-25T15:50:24;13.10;99.90
20376;DHT22;10347;51.828;6.466;2022-11-25T15:52:54;13.10;99.90
20376;DHT22;10347;51.828;6.466;2022-11-25T15:58:04;13.00;99.90
20376;DHT22;10347;51.828;6.466;2022-11-25T16:00:30;13.00;99.90
20376;DHT22;10347;51.828;6.466;2022-11-25T16:02:57;13.00;99.90
20376;DHT22;10347;51.828;6.466;2022-11-25T16:05:28;13.00;99.90
20376;DHT22;10347;51.828;6.466;2022-11-25T16:07:58;13.00;99.90
20376;DHT22;10347;51.828;6.466;2022-11-25T16:13:28;12.90;99.90
20376;DHT22;10347;51.828;6.466;2022-11-25T16:16:14;12.90;99.90
20376;DHT22;10347;51.828;6.466;2022-11-25T16:18:41;12.90;99.90
20376;DHT22;10347;51.828;6.466;2022-11-25T16:21:14;12.80;99.90
20376;DHT22;10347;51.828;6.466;2022-11-25T16:24:26;12.80;99.90
20376;DHT22;10347;51.828;6.466;2022-11-25T16:26:35;12.80;99.90
20376;DHT22;10347;51.828;6.466;2022-11-25T16:29:14;12.70;99.90
20376;DHT22;10347;51.828;6.466;2022-11-25T16:31:40;12.70;99.90
20376;DHT22;10347;51.828;6.466;2022-11-25T16:34:20;12.70;99.90
20376;DHT22;10347;51.828;6.466;2022-11-25T16:36:46;12.70;99.90
20376;DHT22;10347;51.828;6.466;2022-11-25T16:39:12;12.60;99.90
20376;DHT22;10347;51.828;6.466;2022-11-25T16:41:38;12.60;99.90
20376;DHT22;10347;51.828;6.466;2022-11-25T16:44:18;12.60;99.90
20376;DHT22;10347;51.828;6.466;2022-11-25T16:46:45;12.50;99.90
20376;DHT22;10347;51.828;6.466;2022-11-25T16:49:13;12.50;99.90
20376;DHT22;10347;51.828;6.466;2022-11-25T16:51:38;12.50;99.90
20376;DHT22;10347;51.828;6.466;2022-11-25T16:54:04;12.50;99.90
20376;DHT22;10347;51.828;6.466;2022-11-25T16:56:30;12.40;99.90
20376;DHT22;10347;51.828;6.466;2022-11-25T16:58:58;12.40;99.90
20376;DHT22;10347;51.828;6.466;2022-11-25T17:01:26;12.30;99.90
20376;DHT22;10347;51.828;6.466;2022-11-25T17:03:53;12.30;99.90
20376;DHT22;10347;51.828;6.466;2022-11-25T17:06:22;12.30;99.90
20376;DHT22;10347;51.828;6.466;2022-11-25T17:08:48;12.30;99.90
20376;DHT22;10347;51.828;6.466;2022-11-25T17:11:37;12.20;99.90
20376;DHT22;10347;51.828;6.466;2022-11-25T17:14:07;12.20;99.90
20376;DHT22;10347;51.828;6.466;2022-11-25T17:16:37;12.20;99.90
20376;DHT22;10347;51.828;6.466;2022-11-25T17:19:02;12.20;99.90
20376;DHT22;10347;51.828;6.466;2022-11-25T17:21:28;12.20;99.90
20376;DHT22;10347;51.828;6.466;2022-11-25T17:23:58;12.20;99.90
20376;DHT22;10347;51.828;6.466;2022-11-25T17:26:25;12.20;99.90
20376;DHT22;10347;51.828;6.466;2022-11-25T17:28:58;12.20;99.90
20376;DHT22;10347;51.828;6.466;2022-11-25T17:31:26;12.20;99.90
20376;DHT22;10347;51.828;6.466;2022-11-25T17:33:53;12.10;99.90
20376;DHT22;10347;51.828;6.466;2022-11-25T17:36:19;12.10;99.90
20376;DHT22;10347;51.828;6.466;2022-11-25T17:38:45;12.10;99.90
20376;DHT22;10347;51.828;6.466;2022-11-25T17:41:15;12.10;99.90
20376;DHT22;10347;51.828;6.466;2022-11-25T17:43:42;12.10;99.90
20376;DHT22;10347;51.828;6.466;2022-11-25T17:46:13;12.10;99.90